Heart's Desire, Canada
Current Conditions -  °F | °C
As of 10:00 AM on Saturday 25 Oct 2014 (Local Time) from CYYT Reporting Station
Rain Showers Rain Showers  
Wind Chill: 43°   Ceiling: 100
Heat Index: 48°   Visibility: 0.25mi
Dew Point: 48°   Wind: 14mph
Humidity: 100%   Direction: 40°NE
Pressure: 29.44"   Gusts: NA
Location:  47.82°N, 53.45°W
Report Text: CYYT 251200Z 04012KT 1/4SM R11/3000FT/N -SHRA FG VV001 09/09 A2944 RMK FG8 SLP972
Loading
Personal Weather Stations






























Interactive Weather Map
Tropical Storm Tracking
New forecast layout! Learn more

10-Day Weather Forecast

Advertisements
Track Severe Weather on mobile